Terminal Aerodrome Forecast
Issued by NWS Wilmington, OH

Home | Current Version | Previous Version | Text Only | Print | Product List | Glossary On
Versions: 1 2 3 4 5 6 7 8 9 10 11 12 13 14 15 16 17 18 19 20 21 22 23
000
FTUS41 KILN 042330
TAFCVG
TAF
KCVG 042330Z 0500/0606 25006KT P6SM VCTS BKN050CB
      TEMPO 0500/0502 05022G36KT 2SM +TSRA OVC020CB
     FM050400 VRB03KT P6SM SCT060
     FM050900 VRB03KT 5SM BR SKC
     FM051300 13004KT P6SM SCT040
     FM052000 09005KT P6SM VCTS BKN050CB
     FM060000 07005KT P6SM SCT050 BKN250=

USA.gov is the U.S. government's official web portal to all federal, state and local government web resources and services.